Time;durP1;ratioP1;P1;durP2;ratioP2;P2;SDS_P1;SDS_P2;PMS_P1;PMS_P2;Temp;Humidity;BMP_temperature;BMP_pressure;BME280_temperature;BME280_humidity;BME280_pressure;Samples;Min_cycle;Max_cycle;Signal;HPM_P1;HPM_P2
2023/07/18 00:00:27;;;;;;;2.03;1.80;;;16.00;99.90;;;;;;5003876;28;20495;-68
2023/07/18 00:02:54;;;;;;;1.33;1.23;;;16.00;99.90;;;;;;5011720;28;20461;-68
2023/07/18 00:05:22;;;;;;;2.57;1.87;;;15.90;99.90;;;;;;5011329;28;20527;-68
2023/07/18 00:07:49;;;;;;;2.70;1.37;;;15.90;99.90;;;;;;5011054;28;20485;-68
2023/07/18 00:10:20;;;;;;;4.00;3.63;;;15.90;99.90;;;;;;5011647;28;20841;-68
2023/07/18 00:12:47;;;;;;;1.80;1.43;;;15.80;99.90;;;;;;5011576;28;20461;-68
2023/07/18 00:15:14;;;;;;;1.30;1.20;;;15.80;99.90;;;;;;5010963;28;20508;-68
2023/07/18 00:17:41;;;;;;;1.97;1.57;;;15.80;99.90;;;;;;5011550;28;20996;-67
2023/07/18 00:20:12;;;;;;;1.40;1.30;;;15.70;99.90;;;;;;5010955;28;20468;-67
2023/07/18 00:22:40;;;;;;;2.67;1.93;;;15.70;99.90;;;;;;5011684;28;20461;-68
2023/07/18 00:25:09;;;;;;;2.27;1.90;;;15.70;99.90;;;;;;5010762;28;20497;-68
2023/07/18 00:27:39;;;;;;;2.17;1.97;;;15.70;99.90;;;;;;5011137;28;20500;-68
2023/07/18 00:30:07;;;;;;;1.70;1.30;;;15.70;99.90;;;;;;5011059;28;20687;-68
2023/07/18 00:32:34;;;;;;;2.00;1.33;;;15.70;99.90;;;;;;5011281;28;20461;-68
2023/07/18 00:35:01;;;;;;;2.40;1.30;;;15.70;99.90;;;;;;5010516;28;20496;-68
2023/07/18 00:37:27;;;;;;;1.30;1.13;;;15.70;99.90;;;;;;5011127;28;20484;-68
2023/07/18 00:39:54;;;;;;;1.60;1.50;;;15.70;99.90;;;;;;5011169;28;20468;-68
2023/07/18 00:42:21;;;;;;;3.37;1.77;;;15.70;99.90;;;;;;5011116;28;20461;-68
2023/07/18 00:44:50;;;;;;;2.90;1.67;;;15.70;99.90;;;;;;5009903;28;20453;-68
2023/07/18 00:47:17;;;;;;;2.00;1.80;;;15.70;99.90;;;;;;5010979;28;20484;-68
2023/07/18 00:49:44;;;;;;;1.83;1.50;;;15.60;99.90;;;;;;5011139;28;20469;-67
2023/07/18 00:52:11;;;;;;;3.50;1.40;;;15.60;99.90;;;;;;5010798;28;20468;-68
2023/07/18 00:54:38;;;;;;;2.13;1.50;;;15.50;99.90;;;;;;5010612;28;20484;-68
2023/07/18 00:57:06;;;;;;;2.47;1.40;;;15.50;99.90;;;;;;5010205;28;20481;-68
2023/07/18 00:59:34;;;;;;;1.73;1.57;;;15.40;99.90;;;;;;5010971;28;20583;-67
2023/07/18 01:02:03;;;;;;;1.53;1.27;;;15.30;99.90;;;;;;5009551;28;20475;-68
2023/07/18 01:04:30;;;;;;;4.40;1.50;;;15.30;99.90;;;;;;5010434;28;20501;-68
2023/07/18 01:06:57;;;;;;;3.97;1.30;;;15.30;99.90;;;;;;5010301;28;20485;-68
2023/07/18 01:09:24;;;;;;;1.67;1.37;;;15.20;99.90;;;;;;5010211;28;20461;-68
2023/07/18 01:11:52;;;;;;;3.13;1.53;;;15.20;99.90;;;;;;5010623;28;20465;-68
2023/07/18 01:14:21;;;;;;;2.00;1.27;;;15.10;99.90;;;;;;5010216;28;20485;-68
2023/07/18 01:16:48;;;;;;;2.87;1.60;;;15.10;99.90;;;;;;5010064;28;20512;-68
2023/07/18 01:19:16;;;;;;;3.90;1.23;;;15.00;99.90;;;;;;5010530;28;20461;-68
2023/07/18 01:21:44;;;;;;;4.40;1.87;;;15.00;99.90;;;;;;5010206;28;20618;-68
2023/07/18 01:24:11;;;;;;;1.73;1.53;;;15.00;99.90;;;;;;5010115;28;21139;-68
2023/07/18 01:26:38;;;;;;;1.53;1.40;;;14.90;99.90;;;;;;5010240;28;20473;-68
2023/07/18 01:29:04;;;;;;;2.47;1.33;;;14.90;99.90;;;;;;5010308;28;20462;-68
2023/07/18 01:31:32;;;;;;;2.17;1.27;;;14.90;99.90;;;;;;5010402;28;20473;-68
2023/07/18 01:33:58;;;;;;;1.70;1.30;;;14.80;99.90;;;;;;5009587;28;20567;-68
2023/07/18 01:36:28;;;;;;;1.80;1.27;;;14.80;99.90;;;;;;5009836;28;20452;-68
2023/07/18 01:38:56;;;;;;;1.23;1.13;;;14.80;99.90;;;;;;5009378;28;20508;-68
2023/07/18 01:41:23;;;;;;;1.30;1.07;;;14.80;99.90;;;;;;5010111;28;20473;-68
2023/07/18 01:43:49;;;;;;;3.40;2.03;;;14.70;99.90;;;;;;5009983;28;20461;-68
2023/07/18 01:46:16;;;;;;;1.50;1.40;;;14.70;99.90;;;;;;5009471;28;20468;-68
2023/07/18 01:48:43;;;;;;;1.53;1.37;;;14.70;99.90;;;;;;5010056;28;20487;-68
2023/07/18 01:51:09;;;;;;;1.77;1.30;;;14.70;99.90;;;;;;5010133;28;20467;-68
2023/07/18 01:53:36;;;;;;;1.40;1.30;;;14.70;99.90;;;;;;5010174;28;20829;-68
2023/07/18 01:56:05;;;;;;;2.27;1.90;;;14.60;99.90;;;;;;5009433;28;20485;-68
2023/07/18 01:58:32;;;;;;;1.53;1.37;;;14.60;99.90;;;;;;5009243;28;20481;-68
2023/07/18 02:01:03;;;;;;;3.77;1.90;;;14.60;99.90;;;;;;5009054;28;20474;-68
2023/07/18 02:03:29;;;;;;;2.90;1.63;;;14.60;99.90;;;;;;5042754;23;20499;-95
2023/07/18 02:05:56;;;;;;;1.53;1.33;;;14.60;99.90;;;;;;4994629;28;20463;-95
2023/07/18 02:08:23;;;;;;;1.63;1.27;;;14.50;99.90;;;;;;4994252;28;20455;-95
2023/07/18 02:10:50;;;;;;;1.57;1.47;;;14.50;99.90;;;;;;4994199;28;20459;-96
2023/07/18 02:13:19;;;;;;;1.50;1.40;;;14.50;99.90;;;;;;4994307;28;20479;-96
2023/07/18 02:15:46;;;;;;;3.10;1.60;;;14.40;99.90;;;;;;5005445;28;20490;-95
2023/07/18 02:18:13;;;;;;;3.53;1.30;;;14.40;99.90;;;;;;4999428;28;20458;-96
2023/07/18 02:20:40;;;;;;;1.63;1.50;;;14.40;99.90;;;;;;5005844;28;20519;-96
2023/07/18 02:23:07;;;;;;;2.57;1.70;;;14.30;99.90;;;;;;5002341;28;20991;-94
2023/07/18 02:25:34;;;;;;;2.97;1.50;;;14.30;99.90;;;;;;4993289;28;20530;-95
2023/07/18 02:28:01;;;;;;;2.13;1.60;;;14.30;99.90;;;;;;5006362;28;20466;-95
2023/07/18 02:30:29;;;;;;;4.00;1.87;;;14.20;99.90;;;;;;5004983;28;20467;-95
2023/07/18 02:32:57;;;;;;;2.43;2.00;;;14.30;99.90;;;;;;5007189;28;20481;-95
2023/07/18 02:35:24;;;;;;;2.67;1.67;;;14.20;99.90;;;;;;5007875;28;20489;-96
2023/07/18 02:37:51;;;;;;;2.03;1.50;;;14.30;99.90;;;;;;5005835;28;20490;-94
2023/07/18 02:40:18;;;;;;;3.17;1.50;;;14.30;99.90;;;;;;5005853;28;20538;-96
2023/07/18 02:42:45;;;;;;;2.57;1.87;;;14.20;99.90;;;;;;5004677;28;20479;-96
2023/07/18 02:45:12;;;;;;;2.50;2.07;;;14.20;99.90;;;;;;5005077;28;20443;-95
2023/07/18 02:47:41;;;;;;;2.33;1.53;;;14.20;99.90;;;;;;5008245;28;20470;-96
2023/07/18 02:50:09;;;;;;;4.30;1.70;;;14.20;99.90;;;;;;5009608;28;20446;-95
2023/07/18 02:52:36;;;;;;;1.67;1.50;;;14.20;99.90;;;;;;5012519;28;20474;-96
2023/07/18 02:55:04;;;;;;;1.43;1.30;;;14.20;99.90;;;;;;5014578;28;20474;-95
2023/07/18 02:57:31;;;;;;;2.23;2.00;;;14.10;99.90;;;;;;5009003;28;20465;-96
2023/07/18 02:59:58;;;;;;;2.40;2.00;;;14.10;99.90;;;;;;5006275;28;20438;-96
2023/07/18 03:02:25;;;;;;;2.20;1.93;;;14.10;99.90;;;;;;5011253;28;20466;-96
2023/07/18 03:04:53;;;;;;;2.23;1.70;;;14.10;99.90;;;;;;5008667;28;20471;-95
2023/07/18 03:07:20;;;;;;;2.60;1.93;;;14.10;99.90;;;;;;5009088;28;20447;-96
2023/07/18 03:09:47;;;;;;;2.30;1.80;;;14.10;99.90;;;;;;5012275;28;20494;-96
2023/07/18 03:12:14;;;;;;;2.23;1.80;;;14.00;99.90;;;;;;5011789;28;20453;-95
2023/07/18 03:14:41;;;;;;;1.80;1.63;;;14.00;99.90;;;;;;5011243;28;20497;-94
2023/07/18 03:17:08;;;;;;;2.70;1.40;;;14.00;99.90;;;;;;5005521;28;20483;-95
2023/07/18 03:19:35;;;;;;;3.20;1.77;;;14.00;99.90;;;;;;5007810;28;20497;-95
2023/07/18 03:22:04;;;;;;;1.90;1.80;;;13.90;99.90;;;;;;5005802;28;20445;-94
2023/07/18 03:24:31;;;;;;;1.57;1.47;;;13.90;99.90;;;;;;5008247;28;20446;-95
2023/07/18 03:26:58;;;;;;;1.83;1.37;;;13.90;99.90;;;;;;5009964;28;20554;-95
2023/07/18 03:29:43;;;;;;;2.77;1.97;;;13.90;99.90;;;;;;5001160;28;20440;-96
2023/07/18 03:32:16;;;;;;;1.90;1.53;;;13.90;99.90;;;;;;5011532;28;20473;-96
2023/07/18 03:34:45;;;;;;;2.30;1.90;;;13.80;99.90;;;;;;5013162;28;20473;-94
2023/07/18 03:37:14;;;;;;;1.60;1.20;;;13.80;99.90;;;;;;5016440;28;20450;-93
2023/07/18 03:39:41;;;;;;;1.90;1.63;;;13.80;99.90;;;;;;5013344;28;20490;-94
2023/07/18 03:42:08;;;;;;;3.53;2.00;;;13.80;99.90;;;;;;5012704;28;20438;-95
2023/07/18 03:44:44;;;;;;;3.47;1.80;;;13.70;99.90;;;;;;5011448;28;20534;-96
2023/07/18 03:47:31;;;;;;;3.10;1.93;;;13.80;99.90;;;;;;5010355;28;20505;-94
2023/07/18 03:49:58;;;;;;;2.23;2.00;;;13.70;99.90;;;;;;5008551;23;20506;-71
2023/07/18 03:52:26;;;;;;;4.13;2.10;;;13.70;99.90;;;;;;4992693;28;20962;-72
2023/07/18 03:54:52;;;;;;;2.30;1.80;;;13.70;99.90;;;;;;4992549;28;20482;-72
2023/07/18 03:57:19;;;;;;;1.83;1.70;;;13.70;99.90;;;;;;4999961;28;20492;-71
2023/07/18 03:59:46;;;;;;;1.40;1.30;;;13.70;99.90;;;;;;5010599;28;20461;-71
2023/07/18 04:02:15;;;;;;;2.40;1.80;;;13.70;99.90;;;;;;5026420;28;20464;-71
2023/07/18 04:04:42;;;;;;;4.70;2.20;;;13.70;99.90;;;;;;5030898;28;20456;-72
2023/07/18 04:07:09;;;;;;;1.87;1.63;;;13.70;99.90;;;;;;5031797;28;20479;-72
2023/07/18 04:09:37;;;;;;;1.83;1.53;;;13.70;99.90;;;;;;5031015;28;20456;-72
2023/07/18 04:12:05;;;;;;;2.20;1.67;;;13.70;99.90;;;;;;5022700;28;21007;-71
2023/07/18 04:14:32;;;;;;;2.03;1.57;;;13.80;99.90;;;;;;5017709;28;20465;-71
2023/07/18 04:16:59;;;;;;;1.70;1.60;;;13.80;99.90;;;;;;5021004;28;20484;-71
2023/07/18 04:19:25;;;;;;;2.30;1.47;;;13.70;99.90;;;;;;5019342;28;20461;-71
2023/07/18 04:21:53;;;;;;;2.07;1.73;;;13.70;99.90;;;;;;5014186;28;20458;-71
2023/07/18 04:24:20;;;;;;;2.47;1.97;;;13.70;99.90;;;;;;5022906;28;20519;-71
2023/07/18 04:26:48;;;;;;;1.50;1.30;;;13.70;99.90;;;;;;5026976;28;20514;-70
2023/07/18 04:29:15;;;;;;;2.23;1.93;;;13.80;99.90;;;;;;5014265;28;20512;-71
2023/07/18 04:31:41;;;;;;;3.50;2.10;;;13.80;99.90;;;;;;5007595;28;20475;-71
2023/07/18 04:34:08;;;;;;;1.83;1.50;;;13.80;99.90;;;;;;5009382;28;20465;-71
2023/07/18 04:36:35;;;;;;;2.60;1.87;;;13.80;99.90;;;;;;5008952;28;20524;-71
2023/07/18 04:39:02;;;;;;;2.13;1.70;;;13.90;99.90;;;;;;5010700;28;20468;-71
2023/07/18 04:41:28;;;;;;;2.00;1.50;;;13.80;99.90;;;;;;5009779;28;20458;-71
2023/07/18 04:43:56;;;;;;;1.43;1.33;;;13.90;99.90;;;;;;5022538;28;20467;-71
2023/07/18 04:46:23;;;;;;;1.60;1.07;;;13.90;99.90;;;;;;5030586;28;21021;-71
2023/07/18 04:48:50;;;;;;;3.47;1.70;;;13.90;99.90;;;;;;5030252;28;20465;-69
2023/07/18 04:51:17;;;;;;;2.37;1.57;;;14.00;99.90;;;;;;5030700;28;20467;-71
2023/07/18 04:53:43;;;;;;;2.07;1.50;;;14.10;99.90;;;;;;5031027;28;20898;-70
2023/07/18 04:56:10;;;;;;;1.50;1.27;;;14.10;99.90;;;;;;5030784;28;20487;-70
2023/07/18 04:58:37;;;;;;;1.40;1.30;;;14.10;99.90;;;;;;5029380;28;20484;-71
2023/07/18 05:01:05;;;;;;;1.83;1.30;;;14.20;99.90;;;;;;5031175;28;20471;-72
2023/07/18 05:03:32;;;;;;;2.43;1.60;;;14.30;99.90;;;;;;5030753;28;20460;-71
2023/07/18 05:05:59;;;;;;;1.70;1.50;;;14.40;99.90;;;;;;5017749;28;20541;-71
2023/07/18 05:08:26;;;;;;;2.17;1.70;;;14.40;99.90;;;;;;5011254;28;20528;-71
2023/07/18 05:11:01;;;;;;;1.80;1.60;;;14.50;99.90;;;;;;5010887;28;20556;-76
2023/07/18 05:13:27;;;;;;;1.97;1.53;;;14.50;99.90;;;;;;5010352;28;20464;-71
2023/07/18 05:15:54;;;;;;;1.70;1.53;;;14.60;99.90;;;;;;5010115;28;21421;-71
2023/07/18 05:18:22;;;;;;;2.50;1.30;;;14.70;99.90;;;;;;5010546;28;20481;-71
2023/07/18 05:20:53;;;;;;;1.37;1.20;;;14.70;99.90;;;;;;5010200;28;20471;-72
2023/07/18 05:23:20;;;;;;;3.00;1.70;;;14.80;99.90;;;;;;5010887;28;20483;-71
2023/07/18 05:25:47;;;;;;;1.40;1.10;;;14.90;99.90;;;;;;5010178;28;20457;-72
2023/07/18 05:28:14;;;;;;;2.43;1.50;;;15.00;99.90;;;;;;5024162;28;20472;-71
2023/07/18 05:30:41;;;;;;;2.20;1.30;;;15.10;99.90;;;;;;5028495;28;20488;-71
2023/07/18 05:33:08;;;;;;;4.43;1.73;;;15.20;99.90;;;;;;5010905;28;20503;-71
2023/07/18 05:35:37;;;;;;;2.10;1.90;;;15.20;99.90;;;;;;5018459;28;20484;-71
2023/07/18 05:38:04;;;;;;;4.33;2.00;;;15.30;99.90;;;;;;5030206;28;20480;-72
2023/07/18 05:40:31;;;;;;;1.80;1.60;;;15.40;99.90;;;;;;5022597;28;20827;-71
2023/07/18 05:42:57;;;;;;;2.37;1.60;;;15.50;99.90;;;;;;5007597;28;20489;-71
2023/07/18 05:45:24;;;;;;;2.07;1.80;;;15.60;99.90;;;;;;4989360;28;20548;-72
2023/07/18 05:50:19;;;;;;;1.70;1.57;;;15.80;99.90;;;;;;5213381;23;20531;-73
2023/07/18 05:52:48;;;;;;;2.17;1.93;;;15.90;99.90;;;;;;5018565;28;20464;-74
2023/07/18 05:55:15;;;;;;;1.90;1.63;;;16.00;99.90;;;;;;5023347;28;20461;-74
2023/07/18 05:57:42;;;;;;;2.40;1.77;;;16.00;99.90;;;;;;5008731;28;20488;-74
2023/07/18 06:00:11;;;;;;;2.93;1.50;;;16.00;99.90;;;;;;5009765;28;20847;-73
2023/07/18 06:02:38;;;;;;;2.70;1.77;;;16.10;99.90;;;;;;5018016;28;20574;-73
2023/07/18 06:05:07;;;;;;;3.17;1.67;;;16.20;99.90;;;;;;5028377;28;20844;-73
2023/07/18 06:07:34;;;;;;;2.13;1.57;;;16.30;99.90;;;;;;5028489;28;20891;-73
2023/07/18 06:10:03;;;;;;;2.53;1.97;;;16.40;99.90;;;;;;5028506;28;20472;-73
2023/07/18 06:12:30;;;;;;;3.13;1.60;;;16.50;99.90;;;;;;5028926;28;20468;-73
2023/07/18 06:14:56;;;;;;;2.60;1.50;;;16.60;99.90;;;;;;5029229;28;20470;-72
2023/07/18 06:17:23;;;;;;;2.83;1.57;;;16.70;99.90;;;;;;5030002;28;20488;-73
2023/07/18 06:19:50;;;;;;;2.20;1.80;;;16.80;99.90;;;;;;5029005;28;20464;-74
2023/07/18 06:22:18;;;;;;;3.20;2.00;;;17.00;99.90;;;;;;5030360;28;20464;-74
2023/07/18 06:24:46;;;;;;;2.10;1.73;;;17.00;99.90;;;;;;5013352;28;20995;-74
2023/07/18 06:27:14;;;;;;;2.60;2.00;;;17.10;99.90;;;;;;4997094;28;20566;-73
2023/07/18 06:29:40;;;;;;;2.17;1.40;;;17.20;99.90;;;;;;5004513;28;20640;-73
2023/07/18 06:32:08;;;;;;;3.77;3.13;;;17.30;99.90;;;;;;5033130;28;20463;-73
2023/07/18 06:34:40;;;;;;;2.20;1.60;;;17.30;99.90;;;;;;5025829;28;20469;-74
2023/07/18 06:37:08;;;;;;;2.37;1.97;;;17.40;99.90;;;;;;5025531;28;20571;-73
2023/07/18 06:39:35;;;;;;;2.60;2.07;;;17.50;99.90;;;;;;5033391;28;20472;-72
2023/07/18 06:42:02;;;;;;;2.37;1.53;;;17.60;99.90;;;;;;5029829;28;20821;-75
2023/07/18 06:44:30;;;;;;;2.77;2.10;;;17.70;99.90;;;;;;5027750;28;20864;-71
2023/07/18 06:46:57;;;;;;;2.00;1.70;;;17.90;99.90;;;;;;5032709;28;20478;-71
2023/07/18 06:49:24;;;;;;;3.00;1.50;;;18.00;99.90;;;;;;5024778;28;20471;-73
2023/07/18 06:51:51;;;;;;;2.60;1.60;;;18.10;99.90;;;;;;5032958;28;20464;-76
2023/07/18 06:54:18;;;;;;;2.53;1.73;;;18.20;99.90;;;;;;5028595;28;20456;-74
2023/07/18 06:56:45;;;;;;;2.20;2.00;;;18.30;99.90;;;;;;5012144;28;20492;-73
2023/07/18 06:59:13;;;;;;;1.67;1.40;;;18.40;99.90;;;;;;5013495;28;20806;-74
2023/07/18 07:01:42;;;;;;;2.10;1.90;;;18.50;99.90;;;;;;5014077;28;20463;-73
2023/07/18 07:04:09;;;;;;;2.23;1.70;;;18.50;99.90;;;;;;5005300;28;20469;-75
2023/07/18 07:06:41;;;;;;;1.57;1.30;;;18.60;99.90;;;;;;5013621;28;20463;-74
2023/07/18 07:09:08;;;;;;;3.80;1.90;;;18.70;99.90;;;;;;5008537;28;20472;-74
2023/07/18 07:11:36;;;;;;;2.80;1.77;;;18.80;99.90;;;;;;5033042;28;20496;-75
2023/07/18 07:14:04;;;;;;;1.50;1.33;;;18.90;99.90;;;;;;5032546;28;20473;-76
2023/07/18 07:16:31;;;;;;;1.57;1.47;;;18.90;99.90;;;;;;5017848;28;20477;-74
2023/07/18 07:18:59;;;;;;;2.67;1.60;;;19.00;99.90;;;;;;5014900;28;20466;-75
2023/07/18 07:21:27;;;;;;;3.03;2.20;;;19.10;99.90;;;;;;5035101;28;20465;-75
2023/07/18 07:23:54;;;;;;;1.80;1.60;;;19.20;99.90;;;;;;5024431;28;20469;-73
2023/07/18 07:26:20;;;;;;;2.17;1.80;;;19.30;99.90;;;;;;5013445;28;20469;-74
2023/07/18 07:28:47;;;;;;;2.43;1.77;;;19.30;99.90;;;;;;5013244;28;20546;-75
2023/07/18 07:31:14;;;;;;;2.53;1.70;;;19.40;99.90;;;;;;5011470;28;20460;-73
2023/07/18 07:33:42;;;;;;;2.60;2.13;;;19.40;99.90;;;;;;5011764;28;20480;-74
2023/07/18 07:36:10;;;;;;;2.07;1.67;;;19.50;99.90;;;;;;5011305;28;20569;-74
2023/07/18 07:38:37;;;;;;;2.07;1.80;;;19.60;99.90;;;;;;5011465;28;21115;-73
2023/07/18 07:41:05;;;;;;;1.57;1.47;;;19.70;99.90;;;;;;5012131;28;20495;-73
2023/07/18 07:43:32;;;;;;;2.07;1.87;;;19.80;99.90;;;;;;5012171;28;20887;-74
2023/07/18 07:45:58;;;;;;;1.87;1.67;;;19.90;99.90;;;;;;5011385;28;20502;-74
2023/07/18 07:48:25;;;;;;;1.80;1.70;;;20.00;99.90;;;;;;4997031;28;20487;-74
2023/07/18 07:50:52;;;;;;;2.67;1.87;;;20.10;99.90;;;;;;5001889;28;20481;-73
2023/07/18 07:53:20;;;;;;;3.17;1.97;;;20.20;99.90;;;;;;5012906;28;20468;-73
2023/07/18 07:58:15;;;;;;;1.53;1.30;;;20.40;99.90;;;;;;5026737;28;20481;-72
2023/07/18 08:00:41;;;;;;;2.30;2.00;;;20.50;99.90;;;;;;5032970;28;20997;-73
2023/07/18 08:03:09;;;;;;;1.53;1.43;;;20.50;99.90;;;;;;5035960;28;20460;-73
2023/07/18 08:08:04;;;;;;;3.23;1.80;;;20.70;99.90;;;;;;5025418;28;20591;-70
2023/07/18 08:10:32;;;;;;;3.17;1.90;;;20.80;99.90;;;;;;5030084;28;20457;-68
2023/07/18 08:12:59;;;;;;;1.83;1.70;;;21.00;99.90;;;;;;5030837;28;20798;-73
2023/07/18 08:15:26;;;;;;;2.80;1.43;;;21.10;99.90;;;;;;5031854;28;20464;-74
2023/07/18 08:17:54;;;;;;;2.07;1.40;;;21.10;99.90;;;;;;5031526;28;20481;-71
2023/07/18 08:20:21;;;;;;;2.77;1.50;;;21.20;99.90;;;;;;5030925;28;20483;-71
2023/07/18 08:22:48;;;;;;;1.50;1.37;;;21.30;99.90;;;;;;5030874;28;20468;-78
2023/07/18 08:25:15;;;;;;;2.20;1.77;;;21.40;99.90;;;;;;5030964;28;20468;-71
2023/07/18 08:27:43;;;;;;;2.07;1.53;;;21.40;99.90;;;;;;5031668;28;20491;-75
2023/07/18 08:30:11;;;;;;;1.80;1.53;;;21.60;99.90;;;;;;5031924;28;20461;-75
2023/07/18 08:32:39;;;;;;;4.83;1.80;;;21.70;99.90;;;;;;5035848;28;20534;-75
2023/07/18 08:35:06;;;;;;;4.17;1.47;;;21.70;99.90;;;;;;5035547;28;20469;-75
2023/07/18 08:37:33;;;;;;;1.73;1.50;;;21.80;99.90;;;;;;5032428;28;20995;-75
2023/07/18 08:40:00;;;;;;;5.67;1.37;;;21.90;99.90;;;;;;5036385;28;20495;-75
2023/07/18 08:42:28;;;;;;;2.53;1.50;;;22.00;99.90;;;;;;5055541;28;20460;-75
2023/07/18 08:44:58;;;;;;;1.83;1.67;;;22.10;99.90;;;;;;5057152;28;20475;-75
2023/07/18 08:47:27;;;;;;;2.07;1.40;;;22.20;99.90;;;;;;5057249;28;20484;-75
2023/07/18 08:49:54;;;;;;;2.90;1.83;;;22.30;99.90;;;;;;5052350;28;20881;-74
2023/07/18 08:52:20;;;;;;;1.93;1.57;;;22.40;99.90;;;;;;5063072;28;20461;-75
2023/07/18 08:54:47;;;;;;;2.37;1.87;;;22.40;99.90;;;;;;5059838;28;20465;-76
2023/07/18 08:57:14;;;;;;;2.07;1.40;;;22.50;99.90;;;;;;5053044;28;20485;-75
2023/07/18 08:59:41;;;;;;;3.03;2.00;;;22.60;99.90;;;;;;5055527;28;20485;-76
2023/07/18 09:02:09;;;;;;;2.87;2.00;;;22.70;98.60;;;;;;5039601;28;20478;-75
2023/07/18 09:04:36;;;;;;;2.53;1.87;;;22.70;97.80;;;;;;5037038;28;20466;-74
2023/07/18 09:07:03;;;;;;;4.27;1.80;;;22.70;99.50;;;;;;5037965;28;20495;-75
2023/07/18 09:09:30;;;;;;;2.70;2.07;;;22.80;99.90;;;;;;5035436;28;20466;-74
2023/07/18 09:11:58;;;;;;;2.10;1.77;;;22.90;99.90;;;;;;5031017;28;20465;-75
2023/07/18 09:14:26;;;;;;;3.10;1.60;;;23.00;99.90;;;;;;5037250;28;20467;-75
2023/07/18 09:16:54;;;;;;;2.90;1.60;;;23.10;99.90;;;;;;5044724;28;20502;-75
2023/07/18 09:19:37;;;;;;;2.23;1.97;;;23.20;99.90;;;;;;5053009;28;20463;-73
2023/07/18 09:22:04;;;;;;;2.43;2.00;;;23.30;99.90;;;;;;5033501;28;20531;-74
2023/07/18 09:24:31;;;;;;;2.10;1.90;;;23.40;99.70;;;;;;5051077;28;20486;-75
2023/07/18 09:26:58;;;;;;;2.17;1.80;;;23.40;99.90;;;;;;5034335;28;20474;-74
2023/07/18 09:29:26;;;;;;;7.00;2.67;;;23.50;99.90;;;;;;5034580;28;20468;-74
2023/07/18 09:31:54;;;;;;;4.17;2.70;;;23.50;98.40;;;;;;5031889;28;20452;-71
2023/07/18 09:34:24;;;;;;;2.80;2.10;;;23.60;99.00;;;;;;5022195;28;20468;-71
2023/07/18 09:36:59;;;;;;;2.43;1.80;;;23.60;99.90;;;;;;5029438;28;20499;-72
2023/07/18 09:39:26;;;;;;;2.73;2.13;;;23.70;99.90;;;;;;5035338;28;20829;-74
2023/07/18 09:41:55;;;;;;;2.23;2.00;;;23.80;99.70;;;;;;5033590;28;20464;-74
2023/07/18 09:44:23;;;;;;;3.13;1.87;;;23.80;99.90;;;;;;5038249;28;20533;-75
2023/07/18 09:46:50;;;;;;;2.53;2.00;;;24.00;99.90;;;;;;5054220;28;20478;-75
2023/07/18 09:49:18;;;;;;;2.43;2.17;;;24.10;99.90;;;;;;5039624;28;20475;-74
2023/07/18 09:51:50;;;;;;;1.97;1.77;;;24.20;98.80;;;;;;5032071;28;20479;-73
2023/07/18 09:54:20;;;;;;;2.83;2.10;;;24.30;99.90;;;;;;5035136;28;20491;-75
2023/07/18 09:56:49;;;;;;;3.07;1.87;;;24.40;99.90;;;;;;5037291;28;20581;-76
2023/07/18 09:59:17;;;;;;;2.33;2.13;;;24.50;99.90;;;;;;5037754;28;20469;-76
2023/07/18 10:01:45;;;;;;;4.13;1.90;;;24.60;98.40;;;;;;5040837;28;20469;-76
2023/07/18 10:04:13;;;;;;;2.53;1.93;;;24.60;99.50;;;;;;5043654;28;20472;-77
2023/07/18 10:06:41;;;;;;;2.93;2.47;;;24.60;99.90;;;;;;5042077;28;20952;-76
2023/07/18 10:09:09;;;;;;;3.63;2.77;;;24.50;99.90;;;;;;5039734;28;20466;-77
2023/07/18 10:12:07;;;;;;;2.63;2.00;;;24.40;99.90;;;;;;5046456;28;20463;-71
2023/07/18 10:14:50;;;;;;;6.00;2.40;;;24.30;99.90;;;;;;5029829;28;20461;-71
2023/07/18 10:17:33;;;;;;;3.00;2.40;;;24.20;99.90;;;;;;5047723;28;20494;-71
2023/07/18 10:20:04;;;;;;;3.10;1.83;;;24.00;99.50;;;;;;5056741;28;20478;-71
2023/07/18 10:22:32;;;;;;;3.07;2.40;;;23.90;98.40;;;;;;5044624;28;20523;-71
2023/07/18 10:25:04;;;;;;;3.40;2.73;;;23.80;99.60;;;;;;5036561;28;20637;-70
2023/07/18 10:27:38;;;;;;;2.87;2.57;;;23.70;99.70;;;;;;5029400;28;20575;-71
2023/07/18 10:30:07;;;;;;;3.23;1.80;;;23.60;99.90;;;;;;5036513;28;20959;-71
2023/07/18 10:32:35;;;;;;;1.87;1.67;;;23.50;99.90;;;;;;5035327;28;20465;-71
2023/07/18 10:35:06;;;;;;;2.57;2.37;;;23.40;99.90;;;;;;5036312;28;20590;-71
2023/07/18 10:37:33;;;;;;;2.47;2.10;;;23.30;99.90;;;;;;5036899;28;20511;-71
2023/07/18 10:40:04;;;;;;;2.43;2.10;;;23.20;99.90;;;;;;5036693;28;20479;-71
2023/07/18 10:42:34;;;;;;;3.40;2.40;;;23.20;99.90;;;;;;5029142;28;20461;-71
2023/07/18 10:45:04;;;;;;;3.07;2.10;;;23.30;99.90;;;;;;5036104;28;20844;-72
2023/07/18 10:47:31;;;;;;;1.93;1.73;;;23.40;99.90;;;;;;5028704;28;20508;-71
2023/07/18 10:49:58;;;;;;;2.53;2.20;;;23.60;99.90;;;;;;5036518;28;20462;-71
2023/07/18 10:52:25;;;;;;;5.40;2.60;;;23.80;99.90;;;;;;5056036;28;20937;-71
2023/07/18 10:54:54;;;;;;;2.60;2.40;;;23.90;99.90;;;;;;5055791;28;20463;-71
2023/07/18 10:57:26;;;;;;;2.57;2.37;;;24.00;99.90;;;;;;5056161;28;20494;-71
2023/07/18 10:59:53;;;;;;;4.50;2.67;;;24.00;99.90;;;;;;5041435;28;20522;-71
2023/07/18 11:02:20;;;;;;;3.30;2.13;;;24.00;99.90;;;;;;5037317;28;20460;-74
2023/07/18 11:04:47;;;;;;;2.67;2.30;;;24.00;99.90;;;;;;5037305;28;20528;-73
2023/07/18 11:07:15;;;;;;;2.40;2.10;;;24.10;99.90;;;;;;5038280;28;20491;-74
2023/07/18 11:09:42;;;;;;;2.23;2.03;;;24.00;99.90;;;;;;5037125;28;20457;-72
2023/07/18 11:12:17;;;;;;;2.47;2.20;;;23.90;99.90;;;;;;5050949;28;20973;-74
2023/07/18 11:14:46;;;;;;;3.10;2.17;;;23.80;99.90;;;;;;5033395;28;21044;-76
2023/07/18 11:17:14;;;;;;;3.60;2.40;;;23.80;99.90;;;;;;5038486;28;20484;-75
2023/07/18 11:19:41;;;;;;;2.37;2.17;;;23.70;99.90;;;;;;5034784;28;20468;-73
2023/07/18 11:22:08;;;;;;;3.40;2.50;;;23.70;99.90;;;;;;5041695;28;20461;-70
2023/07/18 11:24:35;;;;;;;4.07;2.23;;;23.60;99.90;;;;;;5032927;28;20459;-70
2023/07/18 11:27:13;;;;;;;2.87;2.47;;;23.50;99.90;;;;;;5032872;28;20480;-70
2023/07/18 11:29:40;;;;;;;2.70;2.00;;;23.40;99.90;;;;;;5034601;28;20456;-75
2023/07/18 11:32:09;;;;;;;3.20;2.37;;;23.30;99.90;;;;;;5041234;28;20472;-76
2023/07/18 11:34:36;;;;;;;2.57;1.90;;;23.30;99.90;;;;;;5034312;28;20955;-77
2023/07/18 11:37:02;;;;;;;3.63;2.27;;;23.20;99.90;;;;;;5034368;28;20494;-73
2023/07/18 11:39:31;;;;;;;3.43;2.20;;;23.20;99.90;;;;;;5032182;28;20475;-77
2023/07/18 11:42:06;;;;;;;3.10;2.53;;;23.10;99.90;;;;;;5033396;28;20460;-69
2023/07/18 11:44:32;;;;;;;2.43;2.23;;;23.10;99.90;;;;;;5031957;28;20466;-71
2023/07/18 11:46:59;;;;;;;3.13;2.40;;;23.00;99.90;;;;;;5031948;28;20487;-72
2023/07/18 11:49:37;;;;;;;5.17;2.27;;;23.00;99.90;;;;;;5034540;28;20468;-70
2023/07/18 11:52:05;;;;;;;3.07;2.60;;;22.90;99.90;;;;;;5039932;28;21068;-69
2023/07/18 11:54:35;;;;;;;2.53;2.33;;;22.80;99.90;;;;;;5031372;28;20999;-73
2023/07/18 11:57:02;;;;;;;2.53;2.10;;;22.70;99.90;;;;;;5032094;28;20487;-71
2023/07/18 11:59:29;;;;;;;3.63;2.63;;;22.70;99.90;;;;;;5033590;28;20541;-71
2023/07/18 12:01:56;;;;;;;3.77;2.40;;;22.70;99.90;;;;;;5037553;28;20471;-73
2023/07/18 12:04:22;;;;;;;6.70;2.47;;;22.70;99.90;;;;;;5055771;28;20490;-74
2023/07/18 12:06:51;;;;;;;2.80;2.53;;;22.70;99.90;;;;;;5055115;28;20567;-74
2023/07/18 12:09:17;;;;;;;2.70;2.50;;;22.70;99.90;;;;;;5058925;28;20463;-74
2023/07/18 12:11:44;;;;;;;3.03;2.67;;;22.80;99.90;;;;;;5056807;28;20477;-75
2023/07/18 12:14:11;;;;;;;4.67;3.20;;;22.80;99.90;;;;;;5059835;28;20474;-74
2023/07/18 12:16:38;;;;;;;2.87;2.67;;;22.80;99.90;;;;;;5057172;28;20474;-74
2023/07/18 12:19:05;;;;;;;3.30;2.53;;;22.90;99.90;;;;;;5057129;28;21053;-71
2023/07/18 12:21:32;;;;;;;3.20;2.50;;;22.90;99.90;;;;;;5052721;28;20474;-75
2023/07/18 12:24:00;;;;;;;2.50;2.30;;;22.90;99.90;;;;;;5051580;28;20477;-73
2023/07/18 12:26:27;;;;;;;3.07;2.30;;;23.00;99.90;;;;;;5045212;28;20474;-71
2023/07/18 12:28:54;;;;;;;3.80;2.83;;;23.10;99.90;;;;;;5031234;28;20478;-71
2023/07/18 12:31:21;;;;;;;3.10;2.80;;;23.20;99.90;;;;;;5031031;28;20469;-70
2023/07/18 12:33:47;;;;;;;3.03;2.63;;;23.30;99.90;;;;;;5031189;28;20554;-71
2023/07/18 12:36:14;;;;;;;3.77;2.87;;;23.40;99.90;;;;;;5030295;28;20866;-73
2023/07/18 12:38:41;;;;;;;2.80;2.37;;;23.50;99.90;;;;;;5030654;28;20483;-76
2023/07/18 12:41:09;;;;;;;3.10;2.17;;;23.60;99.90;;;;;;5031341;28;20974;-73
2023/07/18 12:43:36;;;;;;;2.43;2.23;;;23.60;99.90;;;;;;5031369;28;20469;-75
2023/07/18 12:46:05;;;;;;;2.60;2.40;;;23.70;99.90;;;;;;5032785;28;20481;-75
2023/07/18 12:48:32;;;;;;;3.73;2.73;;;23.80;99.90;;;;;;5029919;28;20486;-77
2023/07/18 12:50:59;;;;;;;2.40;2.17;;;23.90;99.90;;;;;;5031193;28;20474;-75
2023/07/18 12:53:26;;;;;;;2.83;2.30;;;24.00;99.90;;;;;;5029623;28;20470;-75
2023/07/18 12:55:53;;;;;;;2.77;2.40;;;24.10;99.90;;;;;;5029868;28;20470;-71
2023/07/18 12:58:21;;;;;;;2.60;2.30;;;24.10;99.90;;;;;;5027094;28;20490;-71